Time;durP1;ratioP1;P1;durP2;ratioP2;P2;SDS_P1;SDS_P2;PMS_P1;PMS_P2;Temp;Humidity;BMP_temperature;BMP_pressure;BME280_temperature;BME280_humidity;BME280_pressure;Samples;Min_cycle;Max_cycle;Signal;HPM_P1;HPM_P2
2022/09/18 00:00:58;;;;;;;13.82;3.25;;;23.90;99.90;;;;;;5051314;28;20111;-70
2022/09/18 00:03:24;;;;;;;16.85;3.05;;;23.90;99.90;;;;;;5050777;28;20029;-71
2022/09/18 00:05:50;;;;;;;10.20;2.83;;;23.90;99.90;;;;;;5050866;28;20025;-70
2022/09/18 00:08:16;;;;;;;10.10;2.97;;;23.80;99.90;;;;;;5050450;28;20033;-71
2022/09/18 00:10:45;;;;;;;14.77;3.15;;;23.90;99.90;;;;;;5050536;28;20038;-71
2022/09/18 00:13:13;;;;;;;13.10;2.75;;;23.80;99.90;;;;;;5049032;28;20092;-71
2022/09/18 00:15:39;;;;;;;13.05;2.65;;;23.80;99.90;;;;;;5050586;28;20035;-70
2022/09/18 00:18:08;;;;;;;11.05;2.63;;;23.80;99.90;;;;;;5050351;28;20413;-70
2022/09/18 00:20:36;;;;;;;10.20;2.80;;;23.80;99.90;;;;;;5050653;28;20423;-71
2022/09/18 00:23:02;;;;;;;14.23;2.85;;;23.80;99.90;;;;;;5050342;28;20100;-71
2022/09/18 00:25:30;;;;;;;14.30;2.80;;;23.70;99.90;;;;;;5048910;28;20033;-71
2022/09/18 00:27:56;;;;;;;12.70;2.42;;;23.70;99.90;;;;;;5050364;28;20025;-71
2022/09/18 00:30:22;;;;;;;12.20;3.00;;;23.70;99.90;;;;;;5050530;28;20457;-70
2022/09/18 00:32:50;;;;;;;14.60;2.88;;;23.80;99.90;;;;;;5049986;28;20056;-71
2022/09/18 00:35:16;;;;;;;13.52;3.38;;;23.70;99.90;;;;;;5050580;28;20052;-70
2022/09/18 00:37:42;;;;;;;13.68;3.00;;;23.60;99.90;;;;;;5050024;28;20029;-71
2022/09/18 00:40:09;;;;;;;10.82;2.47;;;23.40;99.90;;;;;;5050190;28;20021;-72
2022/09/18 00:42:35;;;;;;;9.35;2.72;;;23.40;99.90;;;;;;5050113;28;20064;-72
2022/09/18 00:45:02;;;;;;;11.25;3.13;;;23.30;99.90;;;;;;5050508;28;20039;-71
2022/09/18 00:47:36;;;;;;;13.93;3.05;;;23.30;99.90;;;;;;5050337;28;20064;-71
2022/09/18 00:50:13;;;;;;;11.02;3.58;;;23.10;99.90;;;;;;5050329;28;20460;-71
2022/09/18 00:52:55;;;;;;;14.05;3.42;;;23.10;99.90;;;;;;5050282;28;20028;-71
2022/09/18 00:55:30;;;;;;;13.93;3.15;;;23.00;99.90;;;;;;5050117;28;20017;-71
2022/09/18 00:57:59;;;;;;;15.60;3.60;;;23.00;99.90;;;;;;5050333;28;20103;-71
2022/09/18 01:00:26;;;;;;;10.80;3.00;;;22.90;99.90;;;;;;5049123;28;20025;-71
2022/09/18 01:02:52;;;;;;;15.80;3.33;;;22.90;99.90;;;;;;5050018;28;20087;-71
2022/09/18 01:05:30;;;;;;;11.35;3.83;;;22.90;99.90;;;;;;5050253;28;20116;-72
2022/09/18 01:08:00;;;;;;;11.93;3.28;;;23.00;99.90;;;;;;5050140;28;20453;-73
2022/09/18 01:10:54;;;;;;;12.05;3.40;;;23.00;99.90;;;;;;5049998;28;20048;-72
2022/09/18 01:13:26;;;;;;;10.63;3.10;;;23.00;99.90;;;;;;5048503;28;20029;-70
2022/09/18 01:16:15;;;;;;;8.65;3.35;;;23.10;99.90;;;;;;5050390;28;20106;-71
2022/09/18 01:18:56;;;;;;;12.82;3.28;;;23.10;99.90;;;;;;5046042;28;20037;-71
2022/09/18 01:21:49;;;;;;;12.93;3.35;;;23.10;99.90;;;;;;5050828;28;20418;-72
2022/09/18 01:24:59;;;;;;;10.38;3.38;;;23.00;99.90;;;;;;5053697;28;20021;-71
2022/09/18 01:28:17;;;;;;;11.65;3.67;;;23.00;99.90;;;;;;5053546;28;20029;-71
2022/09/18 01:30:46;;;;;;;12.70;3.17;;;23.10;99.90;;;;;;5039396;28;20120;-71
2022/09/18 01:33:24;;;;;;;13.05;3.35;;;23.10;99.90;;;;;;5053881;28;20048;-71
2022/09/18 01:35:58;;;;;;;12.00;3.20;;;23.20;99.90;;;;;;5052268;28;20032;-72
2022/09/18 01:38:32;;;;;;;11.45;3.55;;;23.20;99.90;;;;;;5053710;28;20346;-72
2022/09/18 01:41:04;;;;;;;13.27;2.95;;;23.20;99.90;;;;;;5053571;28;20025;-72
2022/09/18 01:43:31;;;;;;;13.00;3.30;;;23.20;99.90;;;;;;5053423;28;20021;-71
2022/09/18 01:46:03;;;;;;;10.73;3.00;;;23.20;99.90;;;;;;5053285;28;20127;-72
2022/09/18 01:48:38;;;;;;;12.90;3.20;;;23.20;99.90;;;;;;5053553;28;20035;-72
2022/09/18 01:51:27;;;;;;;17.63;3.57;;;23.20;99.90;;;;;;5053736;28;20114;-72
2022/09/18 01:54:02;;;;;;;9.43;2.75;;;23.30;99.90;;;;;;5053500;28;20051;-71
2022/09/18 01:56:41;;;;;;;11.07;3.20;;;23.10;99.90;;;;;;5051795;28;20029;-72
2022/09/18 01:59:16;;;;;;;12.40;3.38;;;23.00;99.90;;;;;;5053399;28;20054;-72
2022/09/18 02:01:45;;;;;;;12.80;3.25;;;23.00;99.90;;;;;;5053437;28;20017;-72
2022/09/18 02:04:18;;;;;;;10.43;3.25;;;22.90;99.90;;;;;;5053092;28;20461;-72
2022/09/18 02:07:13;;;;;;;11.15;3.15;;;22.80;99.90;;;;;;5053142;28;20075;-71
2022/09/18 02:09:41;;;;;;;13.50;3.22;;;22.70;99.90;;;;;;5050907;28;20489;-71
2022/09/18 02:12:10;;;;;;;13.32;3.22;;;22.70;99.90;;;;;;5052769;28;20080;-71
2022/09/18 02:14:46;;;;;;;12.25;3.10;;;22.70;99.90;;;;;;5052885;28;20033;-72
2022/09/18 02:17:18;;;;;;;10.53;3.50;;;22.70;99.90;;;;;;5053109;28;20025;-72
2022/09/18 02:19:50;;;;;;;12.40;3.05;;;22.70;99.90;;;;;;5052870;28;20256;-72
2022/09/18 02:22:20;;;;;;;14.23;3.38;;;22.60;99.90;;;;;;5053062;28;20521;-72
2022/09/18 02:24:49;;;;;;;14.15;3.33;;;22.60;99.90;;;;;;5051353;28;20499;-72
2022/09/18 02:27:17;;;;;;;11.43;3.03;;;22.50;99.90;;;;;;5052463;28;20029;-71
2022/09/18 02:29:45;;;;;;;12.93;3.03;;;22.50;99.90;;;;;;5052415;28;20105;-72
2022/09/18 02:32:12;;;;;;;11.93;3.25;;;22.50;99.90;;;;;;5052242;28;20044;-72
2022/09/18 02:34:38;;;;;;;15.55;3.40;;;22.40;99.90;;;;;;5052334;28;20028;-72
2022/09/18 02:37:36;;;;;;;13.00;3.40;;;22.40;99.90;;;;;;5052392;28;20025;-71
2022/09/18 02:40:23;;;;;;;13.32;3.35;;;22.40;99.90;;;;;;5052666;28;20072;-72
2022/09/18 02:43:15;;;;;;;12.35;3.33;;;22.30;99.90;;;;;;5052695;28;20066;-72
2022/09/18 02:46:18;;;;;;;12.63;2.95;;;22.40;99.90;;;;;;5049002;28;20101;-72
2022/09/18 02:49:03;;;;;;;12.88;3.55;;;22.40;99.90;;;;;;5049092;28;20551;-72
2022/09/18 02:51:49;;;;;;;13.95;3.25;;;22.30;99.90;;;;;;5050654;28;20021;-73
2022/09/18 02:54:21;;;;;;;;;;;22.30;99.90;;;;;;5052491;28;20021;-72
2022/09/18 02:57:00;;;;;;;11.45;3.05;;;22.30;99.90;;;;;;5052335;28;19909;-72
2022/09/18 02:59:33;;;;;;;13.65;3.20;;;22.30;99.90;;;;;;5052254;28;20458;-71
2022/09/18 03:02:00;;;;;;;18.15;3.60;;;22.30;99.90;;;;;;5052181;28;20043;-72
2022/09/18 03:04:27;;;;;;;17.65;4.10;;;22.30;99.90;;;;;;5050273;28;20020;-72
2022/09/18 03:06:53;;;;;;;14.27;3.80;;;22.30;99.90;;;;;;5052031;28;20056;-71
2022/09/18 03:09:20;;;;;;;19.20;3.75;;;22.10;99.90;;;;;;5050226;28;20076;-71
2022/09/18 03:11:48;;;;;;;14.85;3.47;;;22.10;99.90;;;;;;5051704;28;20422;-72
2022/09/18 03:14:14;;;;;;;16.40;3.60;;;22.10;99.90;;;;;;5051851;28;20061;-72
2022/09/18 03:16:40;;;;;;;22.95;4.22;;;22.20;99.90;;;;;;5051795;28;20039;-72
2022/09/18 03:19:06;;;;;;;17.42;3.38;;;22.10;99.90;;;;;;5051647;28;20047;-72
2022/09/18 03:21:33;;;;;;;15.40;3.42;;;22.20;99.90;;;;;;5050201;28;20029;-72
2022/09/18 03:23:59;;;;;;;16.50;3.80;;;22.20;99.90;;;;;;5051380;28;20082;-72
2022/09/18 03:26:25;;;;;;;18.70;3.50;;;22.10;99.90;;;;;;5051338;28;20025;-72
2022/09/18 03:28:51;;;;;;;20.88;3.95;;;22.00;99.90;;;;;;5051271;28;20185;-72
2022/09/18 03:31:17;;;;;;;21.30;4.00;;;22.00;99.90;;;;;;5051214;28;20050;-72
2022/09/18 03:33:43;;;;;;;23.95;4.18;;;22.10;99.90;;;;;;5051205;28;20081;-72
2022/09/18 03:36:09;;;;;;;18.55;3.83;;;22.00;99.90;;;;;;5051240;28;20029;-71
2022/09/18 03:38:39;;;;;;;21.85;4.00;;;22.10;99.90;;;;;;5051108;28;20029;-72
2022/09/18 03:41:06;;;;;;;18.90;4.00;;;22.00;99.90;;;;;;5051474;28;20121;-72
2022/09/18 03:43:33;;;;;;;12.95;3.65;;;22.00;99.90;;;;;;5050887;28;20109;-72
2022/09/18 03:46:00;;;;;;;23.35;3.75;;;22.00;99.90;;;;;;5051095;28;20021;-72
2022/09/18 03:48:26;;;;;;;20.48;3.40;;;22.00;99.90;;;;;;5051367;28;20056;-72
2022/09/18 03:50:52;;;;;;;23.55;3.53;;;22.00;99.90;;;;;;5051013;28;20063;-72
2022/09/18 03:53:18;;;;;;;21.27;4.20;;;22.10;99.90;;;;;;5051069;28;20032;-71
2022/09/18 03:55:45;;;;;;;20.10;3.58;;;22.00;99.90;;;;;;5049516;28;20025;-71
2022/09/18 03:58:12;;;;;;;22.52;4.07;;;22.00;99.90;;;;;;5050104;28;20414;-71
2022/09/18 04:00:38;;;;;;;20.85;3.72;;;22.00;99.90;;;;;;5049301;28;20024;-71
2022/09/18 04:03:04;;;;;;;19.67;3.38;;;21.90;99.90;;;;;;5051114;28;20029;-71
2022/09/18 04:05:30;;;;;;;19.17;3.97;;;22.00;99.90;;;;;;5051237;28;20079;-71
2022/09/18 04:07:56;;;;;;;20.20;3.95;;;22.00;99.90;;;;;;5050765;28;20059;-71
2022/09/18 04:10:22;;;;;;;17.40;3.55;;;22.00;99.90;;;;;;5050953;28;20033;-71
2022/09/18 04:12:48;;;;;;;21.17;4.35;;;22.00;99.90;;;;;;5050743;28;20108;-71
2022/09/18 04:15:15;;;;;;;23.15;4.28;;;22.00;99.90;;;;;;5050724;28;20036;-71
2022/09/18 04:17:41;;;;;;;;;;;21.90;99.90;;;;;;5051225;28;20017;-71
2022/09/18 04:20:08;;;;;;;;;;;21.90;99.90;;;;;;5050981;28;19909;-71
2022/09/18 04:22:34;;;;;;;15.18;3.13;;;21.90;99.90;;;;;;5050583;28;20386;-72
2022/09/18 04:25:01;;;;;;;;;;;21.90;99.90;;;;;;5050881;28;20127;-71
2022/09/18 04:27:27;;;;;;;;;;;21.90;99.90;;;;;;5051096;28;19908;-71
2022/09/18 04:29:53;;;;;;;16.85;3.28;;;21.90;99.90;;;;;;5050653;28;19943;-71
2022/09/18 04:32:19;;;;;;;12.80;3.05;;;21.90;99.90;;;;;;5050034;28;20117;-71
2022/09/18 04:34:45;;;;;;;16.95;3.28;;;21.80;99.90;;;;;;5050397;28;20083;-71
2022/09/18 04:37:11;;;;;;;17.05;3.85;;;21.80;99.90;;;;;;5050627;28;20013;-71
2022/09/18 04:39:37;;;;;;;16.52;3.33;;;21.80;99.90;;;;;;5050380;28;20029;-71
2022/09/18 04:42:04;;;;;;;16.95;3.35;;;21.80;99.90;;;;;;5050199;28;20063;-71
2022/09/18 04:44:30;;;;;;;;;;;21.70;99.90;;;;;;5050613;28;20470;-72
2022/09/18 04:46:56;;;;;;;14.27;2.97;;;21.70;99.90;;;;;;5050491;28;19905;-71
2022/09/18 04:49:22;;;;;;;14.50;3.42;;;21.70;99.90;;;;;;5050379;28;20119;-71
2022/09/18 04:51:48;;;;;;;18.98;3.53;;;21.60;99.90;;;;;;5050174;28;20064;-71
2022/09/18 04:54:14;;;;;;;14.65;2.95;;;21.60;99.90;;;;;;5048808;28;20358;-71
2022/09/18 04:56:41;;;;;;;20.60;3.80;;;21.50;99.90;;;;;;5053386;28;20448;-72
2022/09/18 04:59:07;;;;;;;17.13;3.17;;;21.50;99.90;;;;;;5054498;28;20101;-71
2022/09/18 05:01:34;;;;;;;15.23;3.42;;;21.60;99.90;;;;;;5054471;28;20021;-71
2022/09/18 05:04:01;;;;;;;24.67;3.20;;;21.60;99.90;;;;;;5054032;28;20025;-71
2022/09/18 05:06:27;;;;;;;16.55;2.90;;;21.60;99.90;;;;;;5054723;28;20029;-71
2022/09/18 05:08:53;;;;;;;17.85;3.75;;;21.60;99.90;;;;;;5054287;28;20025;-71
2022/09/18 05:11:19;;;;;;;18.15;3.25;;;21.70;99.90;;;;;;5054267;28;20163;-71
2022/09/18 05:13:48;;;;;;;13.93;3.40;;;21.70;99.90;;;;;;5054436;28;20051;-71
2022/09/18 05:16:14;;;;;;;15.65;3.22;;;21.70;99.90;;;;;;5054430;28;20059;-71
2022/09/18 05:18:40;;;;;;;14.50;2.60;;;21.80;99.90;;;;;;5052958;28;20029;-73
2022/09/18 05:21:07;;;;;;;14.40;3.05;;;21.90;99.90;;;;;;5054678;28;20428;-71
2022/09/18 05:23:33;;;;;;;11.98;2.67;;;21.90;99.90;;;;;;5054351;28;20025;-71
2022/09/18 05:26:00;;;;;;;17.58;3.10;;;21.90;99.90;;;;;;5054310;28;20067;-71
2022/09/18 05:28:26;;;;;;;14.70;3.05;;;22.00;99.90;;;;;;5054493;28;20559;-71
2022/09/18 05:30:57;;;;;;;16.20;2.95;;;22.10;99.90;;;;;;5054502;28;20029;-71
2022/09/18 05:33:25;;;;;;;19.30;3.45;;;22.10;99.90;;;;;;5054451;28;20032;-71
2022/09/18 05:35:55;;;;;;;12.52;2.47;;;22.20;99.90;;;;;;5052630;28;20123;-71
2022/09/18 05:38:22;;;;;;;17.35;3.17;;;22.30;99.90;;;;;;5054090;28;20166;-71
2022/09/18 05:40:48;;;;;;;15.75;2.55;;;22.40;99.90;;;;;;5054424;28;20021;-71
2022/09/18 05:43:15;;;;;;;12.25;2.60;;;23.00;99.90;;;;;;5054387;28;20079;-72
2022/09/18 05:45:42;;;;;;;10.82;2.83;;;24.20;99.90;;;;;;5053879;28;20047;-71
2022/09/18 05:48:09;;;;;;;12.77;2.53;;;25.70;99.90;;;;;;5054086;28;20068;-72
2022/09/18 05:50:36;;;;;;;12.25;2.65;;;27.10;99.90;;;;;;5054092;28;20036;-72
2022/09/18 05:53:03;;;;;;;10.10;2.00;;;28.90;99.90;;;;;;5053811;28;20017;-71
2022/09/18 05:55:30;;;;;;;13.98;2.60;;;29.90;99.90;;;;;;5053888;28;20036;-72
2022/09/18 05:57:57;;;;;;;16.35;2.95;;;30.80;99.90;;;;;;5053682;28;20067;-71
2022/09/18 06:00:24;;;;;;;12.13;2.90;;;31.90;99.90;;;;;;5053844;28;20379;-72
2022/09/18 06:03:04;;;;;;;12.45;2.58;;;32.30;99.90;;;;;;5053668;28;20032;-71
2022/09/18 06:05:32;;;;;;;13.13;2.58;;;33.00;99.90;;;;;;5053694;28;20025;-71
2022/09/18 06:07:59;;;;;;;13.10;2.42;;;34.00;99.90;;;;;;5053393;28;20031;-72
2022/09/18 06:10:26;;;;;;;10.82;2.72;;;34.80;99.40;;;;;;5053628;28;20548;-72
2022/09/18 06:13:03;;;;;;;10.70;2.67;;;35.40;98.50;;;;;;5053476;28;20021;-72
2022/09/18 06:15:29;;;;;;;8.75;2.28;;;36.30;97.40;;;;;;5053715;28;20036;-72
2022/09/18 06:17:55;;;;;;;13.43;2.67;;;36.30;96.50;;;;;;5053502;28;20024;-72
2022/09/18 06:20:21;;;;;;;11.95;2.72;;;36.40;96.40;;;;;;5053446;28;20057;-72
2022/09/18 06:22:47;;;;;;;11.80;2.33;;;36.30;95.70;;;;;;5053467;28;20033;-72
2022/09/18 06:25:17;;;;;;;11.82;2.25;;;34.00;96.50;;;;;;5053226;28;20114;-71
2022/09/18 06:27:43;;;;;;;8.63;2.15;;;33.60;97.10;;;;;;5053163;28;20021;-72
2022/09/18 06:30:09;;;;;;;12.82;2.50;;;33.60;97.50;;;;;;5052234;28;20043;-71
2022/09/18 06:32:35;;;;;;;12.18;2.47;;;34.20;96.90;;;;;;5053146;28;20440;-72
2022/09/18 06:35:01;;;;;;;12.02;2.58;;;34.50;96.40;;;;;;5053085;28;20021;-72
2022/09/18 06:37:27;;;;;;;8.95;2.05;;;35.50;96.10;;;;;;5051832;28;20128;-72
2022/09/18 06:39:53;;;;;;;11.02;2.40;;;36.40;95.00;;;;;;5053174;28;20021;-72
2022/09/18 06:42:19;;;;;;;11.38;2.25;;;37.30;94.20;;;;;;5053169;28;20036;-72
2022/09/18 06:44:45;;;;;;;7.00;2.20;;;37.00;93.90;;;;;;5053422;28;20408;-72
2022/09/18 06:47:11;;;;;;;11.30;2.47;;;37.50;93.60;;;;;;5051619;28;20110;-71
2022/09/18 06:49:37;;;;;;;8.27;2.50;;;37.10;93.00;;;;;;5053162;28;20040;-71
2022/09/18 06:52:04;;;;;;;9.27;2.40;;;36.50;93.60;;;;;;5053277;28;20020;-71
2022/09/18 06:54:30;;;;;;;6.57;1.95;;;36.60;93.60;;;;;;5052852;28;20028;-72
2022/09/18 06:56:56;;;;;;;8.45;2.33;;;36.60;93.30;;;;;;5052623;28;20028;-71
2022/09/18 06:59:22;;;;;;;10.52;2.05;;;36.40;93.50;;;;;;5052550;28;20473;-71
2022/09/18 07:01:49;;;;;;;8.70;1.85;;;36.40;93.00;;;;;;5052537;28;20108;-72
2022/09/18 07:04:15;;;;;;;8.65;2.13;;;36.20;93.40;;;;;;5052948;28;20033;-72
2022/09/18 07:06:45;;;;;;;11.90;1.98;;;36.60;92.80;;;;;;5052860;28;20067;-71
2022/09/18 07:09:11;;;;;;;9.73;2.28;;;36.00;93.40;;;;;;5052973;28;20373;-71
2022/09/18 07:11:38;;;;;;;5.57;1.80;;;36.30;93.10;;;;;;5052836;28;20067;-72
2022/09/18 07:14:07;;;;;;;9.43;2.20;;;37.00;92.60;;;;;;5052358;28;20043;-72
2022/09/18 07:16:34;;;;;;;8.40;2.03;;;36.90;92.40;;;;;;5052760;28;20027;-72
2022/09/18 07:19:00;;;;;;;7.10;2.10;;;36.60;92.20;;;;;;5049966;28;20025;-72
2022/09/18 07:21:26;;;;;;;10.38;2.20;;;36.90;92.40;;;;;;5052689;28;20059;-72
2022/09/18 07:23:52;;;;;;;6.15;1.85;;;37.40;91.50;;;;;;5052230;28;20032;-73
2022/09/18 07:26:19;;;;;;;6.47;2.03;;;36.60;91.60;;;;;;5052285;28;20029;-72
2022/09/18 07:28:45;;;;;;;6.68;1.83;;;35.70;92.70;;;;;;5052482;28;20112;-72
2022/09/18 07:31:12;;;;;;;9.73;2.17;;;35.00;92.90;;;;;;5052003;28;20049;-72
2022/09/18 07:33:39;;;;;;;8.60;2.08;;;34.20;93.10;;;;;;5052005;28;20104;-71
2022/09/18 07:36:05;;;;;;;12.07;2.03;;;33.80;94.00;;;;;;5050285;28;20033;-72
2022/09/18 07:38:36;;;;;;;11.68;2.22;;;32.90;94.10;;;;;;5051934;28;20021;-71
2022/09/18 07:41:03;;;;;;;12.35;2.13;;;32.20;94.00;;;;;;5051790;28;20063;-71
2022/09/18 07:43:30;;;;;;;9.32;2.00;;;31.80;95.30;;;;;;5051409;28;20032;-71
2022/09/18 07:45:56;;;;;;;9.95;2.05;;;31.80;94.00;;;;;;5051293;28;20056;-72
2022/09/18 07:48:23;;;;;;;11.50;2.20;;;31.60;94.50;;;;;;5049949;28;20346;-72
2022/09/18 07:50:49;;;;;;;8.57;2.00;;;31.20;95.30;;;;;;5051291;28;20188;-71
2022/09/18 07:53:16;;;;;;;17.80;2.75;;;30.90;95.20;;;;;;5051215;28;20080;-72
2022/09/18 07:55:46;;;;;;;11.98;2.28;;;30.90;95.30;;;;;;5050713;28;20426;-72
2022/09/18 07:58:12;;;;;;;6.57;2.05;;;31.00;95.00;;;;;;5051024;28;20099;-72
2022/09/18 08:00:38;;;;;;;;;;;30.50;94.40;;;;;;5051159;28;20040;-72
2022/09/18 08:03:13;;;;;;;9.10;2.08;;;30.60;94.70;;;;;;5049118;28;19905;-72
2022/09/18 08:05:40;;;;;;;11.20;1.92;;;30.60;94.90;;;;;;5050990;28;20027;-72
2022/09/18 08:08:11;;;;;;;10.18;2.00;;;31.00;95.10;;;;;;5050689;28;20442;-72
2022/09/18 08:10:39;;;;;;;7.78;2.10;;;31.40;94.90;;;;;;5050293;28;20520;-72
2022/09/18 08:13:06;;;;;;;8.35;2.05;;;30.90;94.30;;;;;;5050720;28;20021;-72
2022/09/18 08:15:35;;;;;;;6.93;1.60;;;31.00;94.20;;;;;;5050541;28;20025;-72
2022/09/18 08:18:01;;;;;;;10.48;2.10;;;30.50;94.30;;;;;;5051315;28;20029;-71
2022/09/18 08:20:27;;;;;;;9.52;2.10;;;30.40;94.80;;;;;;5051543;28;20024;-72
2022/09/18 08:22:53;;;;;;;5.78;1.85;;;30.40;94.80;;;;;;5050200;28;20025;-72
2022/09/18 08:25:22;;;;;;;8.32;2.05;;;30.30;94.40;;;;;;5051571;28;20091;-71
2022/09/18 08:27:48;;;;;;;11.40;2.00;;;29.90;94.70;;;;;;5052041;28;20033;-72
2022/09/18 08:30:15;;;;;;;9.02;1.92;;;29.90;94.80;;;;;;5051908;28;20166;-72
2022/09/18 08:32:41;;;;;;;10.05;1.95;;;29.90;95.20;;;;;;5051558;28;20048;-72
2022/09/18 08:35:08;;;;;;;7.78;1.90;;;29.70;95.30;;;;;;5051511;28;20025;-72
2022/09/18 08:37:34;;;;;;;9.90;2.30;;;29.90;95.00;;;;;;5051574;28;20135;-73
2022/09/18 08:40:00;;;;;;;;;;;30.00;95.00;;;;;;5051914;28;20060;-73
2022/09/18 08:43:03;;;;;;;8.82;1.90;;;30.20;94.90;;;;;;5051802;28;20357;-72
2022/09/18 08:45:57;;;;;;;7.40;1.85;;;30.00;95.10;;;;;;5051662;28;20029;-73
2022/09/18 08:48:32;;;;;;;9.40;1.98;;;30.30;95.00;;;;;;5051287;28;20504;-72
2022/09/18 08:51:14;;;;;;;12.48;1.88;;;30.30;95.00;;;;;;5050418;28;20029;-72
2022/09/18 08:53:45;;;;;;;6.30;1.88;;;30.10;95.20;;;;;;5050255;28;20424;-72
2022/09/18 08:56:17;;;;;;;6.43;1.73;;;29.60;95.30;;;;;;5050168;28;20025;-72
2022/09/18 08:58:59;;;;;;;7.05;2.10;;;29.10;95.70;;;;;;5050357;28;20021;-72
2022/09/18 09:01:50;;;;;;;8.57;2.13;;;28.90;96.00;;;;;;5050440;28;20120;-72
2022/09/18 09:04:28;;;;;;;12.00;2.17;;;28.70;96.40;;;;;;5048549;28;20021;-72
2022/09/18 09:07:27;;;;;;;8.00;2.30;;;28.50;96.60;;;;;;5050164;28;20040;-73
2022/09/18 09:10:21;;;;;;;6.72;2.00;;;28.80;96.50;;;;;;5050008;28;20414;-72
2022/09/18 09:13:08;;;;;;;11.50;2.28;;;29.10;95.90;;;;;;5050447;28;20100;-72
2022/09/18 09:16:00;;;;;;;8.95;1.90;;;29.40;95.90;;;;;;5048684;28;20489;-73
2022/09/18 09:18:48;;;;;;;8.50;1.70;;;29.60;95.70;;;;;;5048576;28;20063;-72
2022/09/18 09:21:58;;;;;;;8.70;2.03;;;29.60;94.70;;;;;;5050134;28;20100;-73
2022/09/18 09:24:34;;;;;;;8.18;1.90;;;29.30;95.00;;;;;;5048403;28;20037;-73
2022/09/18 09:27:26;;;;;;;7.93;2.15;;;29.60;95.00;;;;;;5050249;28;20098;-73
2022/09/18 09:30:00;;;;;;;18.77;3.15;;;29.90;95.50;;;;;;5045515;28;20091;-72
2022/09/18 09:32:46;;;;;;;12.48;2.80;;;30.00;98.30;;;;;;5049642;28;20513;-73
2022/09/18 09:35:30;;;;;;;8.65;2.80;;;30.10;98.90;;;;;;5049933;28;20039;-74
2022/09/18 09:38:02;;;;;;;11.63;2.70;;;30.20;99.40;;;;;;5050095;28;20029;-73
2022/09/18 09:40:41;;;;;;;8.73;2.53;;;30.20;99.10;;;;;;5049795;28;20754;-72
2022/09/18 09:43:43;;;;;;;15.95;3.40;;;30.40;99.40;;;;;;5051582;28;20051;-72
2022/09/18 09:46:22;;;;;;;11.35;2.90;;;30.30;99.70;;;;;;5053076;28;20130;-72
2022/09/18 09:49:00;;;;;;;12.57;2.65;;;30.40;99.20;;;;;;5052954;28;20041;-72
2022/09/18 09:52:02;;;;;;;10.02;2.47;;;30.30;99.20;;;;;;5052947;28;20074;-71
2022/09/18 09:54:31;;;;;;;11.65;2.63;;;30.20;99.50;;;;;;5052317;28;20215;-72
2022/09/18 09:57:15;;;;;;;10.98;2.55;;;29.90;99.60;;;;;;5052574;28;20430;-72
2022/09/18 10:00:18;;;;;;;9.98;2.40;;;29.90;99.50;;;;;;5052913;28;20099;-72
2022/09/18 10:03:08;;;;;;;11.07;2.60;;;29.50;99.60;;;;;;5053066;28;20031;-72
2022/09/18 10:05:39;;;;;;;12.00;2.72;;;29.40;99.70;;;;;;5051249;28;20158;-72
2022/09/18 10:08:34;;;;;;;11.13;2.90;;;29.60;99.90;;;;;;5052846;28;20355;-72
2022/09/18 10:11:07;;;;;;;10.25;2.58;;;29.60;99.90;;;;;;5030415;28;20041;-72
2022/09/18 10:13:52;;;;;;;14.35;2.90;;;29.60;99.90;;;;;;5013678;28;20433;-72
2022/09/18 10:16:26;;;;;;;14.18;3.20;;;29.50;99.90;;;;;;5030331;28;20057;-72
2022/09/18 10:18:52;;;;;;;11.15;3.35;;;29.50;99.90;;;;;;5030689;28;20102;-72
2022/09/18 10:21:25;;;;;;;10.85;2.60;;;29.60;99.90;;;;;;5030392;28;20049;-72
2022/09/18 10:24:04;;;;;;;11.38;2.70;;;29.70;99.90;;;;;;5030554;28;20083;-72
2022/09/18 10:26:37;;;;;;;11.63;2.60;;;29.50;99.90;;;;;;5030436;28;20025;-72
2022/09/18 10:29:03;;;;;;;11.93;2.50;;;29.80;99.90;;;;;;5013323;28;20033;-72
2022/09/18 10:31:51;;;;;;;17.52;2.75;;;29.90;99.90;;;;;;5029746;28;20061;-72
2022/09/18 10:34:44;;;;;;;10.00;2.42;;;30.00;99.90;;;;;;5030189;28;20034;-72
2022/09/18 10:37:29;;;;;;;12.45;2.60;;;30.10;99.90;;;;;;5029992;28;20026;-72
2022/09/18 10:39:58;;;;;;;9.77;2.95;;;30.00;99.90;;;;;;5030059;28;20082;-72
2022/09/18 10:42:35;;;;;;;11.40;3.00;;;30.10;99.90;;;;;;5029816;28;20025;-72
2022/09/18 10:45:06;;;;;;;12.93;2.97;;;30.10;99.90;;;;;;5029945;28;20205;-72
2022/09/18 10:47:36;;;;;;;21.40;3.13;;;30.20;99.80;;;;;;5039069;28;20071;-72
2022/09/18 10:50:05;;;;;;;11.23;2.70;;;30.20;99.80;;;;;;5051679;28;20041;-72
2022/09/18 10:53:08;;;;;;;10.15;2.80;;;30.10;99.80;;;;;;5051581;28;20033;-72
2022/09/18 10:55:48;;;;;;;13.43;2.58;;;30.10;99.90;;;;;;5050046;28;20036;-72
2022/09/18 10:58:15;;;;;;;11.13;2.42;;;30.10;99.90;;;;;;5052006;28;20051;-72
2022/09/18 11:01:02;;;;;;;11.55;2.25;;;30.30;99.90;;;;;;5051425;28;20025;-71
2022/09/18 11:03:37;;;;;;;11.70;2.40;;;30.30;99.80;;;;;;5051858;28;20409;-72
2022/09/18 11:06:08;;;;;;;9.65;2.30;;;30.20;99.90;;;;;;5051317;28;20021;-72
2022/09/18 11:08:39;;;;;;;12.68;2.55;;;30.10;99.90;;;;;;5051628;28;20060;-72
2022/09/18 11:11:18;;;;;;;11.00;2.30;;;29.90;99.90;;;;;;5051663;28;20082;-72
2022/09/18 11:14:10;;;;;;;14.32;2.50;;;29.70;99.90;;;;;;5051632;28;20086;-72
2022/09/18 11:16:41;;;;;;;7.85;1.90;;;29.80;99.90;;;;;;5046067;28;20033;-72
2022/09/18 11:19:22;;;;;;;8.40;1.90;;;29.70;99.90;;;;;;5051791;28;20418;-72
2022/09/18 11:21:51;;;;;;;10.63;2.15;;;29.80;99.90;;;;;;5051017;28;20028;-72
2022/09/18 11:24:48;;;;;;;11.60;2.35;;;29.90;99.90;;;;;;5051081;28;20032;-73
2022/09/18 11:27:21;;;;;;;9.70;1.70;;;30.10;99.90;;;;;;5049689;28;20097;-72
2022/09/18 11:29:48;;;;;;;7.82;2.30;;;30.20;99.80;;;;;;5049666;28;20400;-72
2022/09/18 11:32:26;;;;;;;7.43;1.75;;;30.40;99.50;;;;;;5050593;28;20045;-72
2022/09/18 11:34:59;;;;;;;6.95;1.85;;;30.50;98.90;;;;;;5050798;28;20093;-72
2022/09/18 11:37:39;;;;;;;8.40;2.13;;;30.60;98.30;;;;;;5050807;28;20025;-72
2022/09/18 11:40:14;;;;;;;8.40;1.92;;;30.50;98.00;;;;;;5050984;28;20343;-72
2022/09/18 11:42:44;;;;;;;;;;;30.50;97.80;;;;;;5051551;28;20415;-72
2022/09/18 11:45:45;;;;;;;7.60;1.88;;;30.50;97.80;;;;;;5050621;28;19915;-72
2022/09/18 11:48:26;;;;;;;5.40;1.67;;;30.50;97.90;;;;;;5048831;28;20041;-73
2022/09/18 11:50:56;;;;;;;7.32;1.70;;;30.50;98.00;;;;;;5051010;28;20127;-73
2022/09/18 11:53:37;;;;;;;12.38;2.30;;;30.50;98.40;;;;;;5050532;28;20095;-72
2022/09/18 11:56:15;;;;;;;8.05;1.65;;;30.20;98.70;;;;;;5050799;28;20174;-72
2022/09/18 11:58:58;;;;;;;6.38;1.33;;;30.30;98.60;;;;;;5050754;28;20480;-72
2022/09/18 12:01:30;;;;;;;7.30;1.50;;;30.30;98.60;;;;;;5050690;28;20025;-73
2022/09/18 12:04:29;;;;;;;7.65;1.50;;;30.40;98.00;;;;;;5048231;28;20036;-72
2022/09/18 12:07:24;;;;;;;7.13;1.83;;;30.40;98.00;;;;;;5050529;28;20091;-72
2022/09/18 12:09:56;;;;;;;8.05;1.40;;;30.60;97.90;;;;;;5050576;28;20037;-72
2022/09/18 12:12:49;;;;;;;7.25;1.50;;;30.00;97.80;;;;;;5050597;28;20103;-72
2022/09/18 12:15:26;;;;;;;7.40;1.92;;;29.70;98.30;;;;;;5045078;28;20028;-72
2022/09/18 12:18:17;;;;;;;7.13;1.50;;;29.70;98.40;;;;;;5050537;28;20029;-71
2022/09/18 12:20:48;;;;;;;12.27;1.77;;;30.00;97.70;;;;;;5050381;28;20035;-72
2022/09/18 12:23:25;;;;;;;6.55;1.50;;;30.20;97.80;;;;;;5050434;28;20112;-72
2022/09/18 12:26:22;;;;;;;4.88;1.30;;;30.30;97.70;;;;;;5050110;28;20028;-72
2022/09/18 12:29:06;;;;;;;5.68;1.40;;;30.50;98.00;;;;;;5011062;28;20553;-72
2022/09/18 12:31:41;;;;;;;6.07;1.10;;;30.50;98.00;;;;;;5028205;28;20125;-72
2022/09/18 12:34:15;;;;;;;9.00;1.52;;;30.50;97.90;;;;;;5027912;28;20528;-71
2022/09/18 12:37:07;;;;;;;5.35;1.10;;;30.50;97.60;;;;;;5028501;28;20378;-72
2022/09/18 12:40:06;;;;;;;4.78;1.25;;;30.60;97.70;;;;;;5028401;28;20083;-73
2022/09/18 12:42:56;;;;;;;4.65;1.13;;;30.60;97.30;;;;;;5028463;28;20032;-72
2022/09/18 12:45:46;;;;;;;6.00;1.20;;;30.60;98.40;;;;;;5028157;28;20156;-72
2022/09/18 12:48:52;;;;;;;6.80;1.20;;;30.50;98.50;;;;;;5028233;28;20105;-72
2022/09/18 12:51:33;;;;;;;6.53;1.40;;;30.60;98.80;;;;;;4988496;28;20257;-72
2022/09/18 12:54:05;;;;;;;3.33;1.08;;;30.60;98.90;;;;;;4988855;28;20435;-72
2022/09/18 12:56:40;;;;;;;6.07;1.02;;;30.70;99.30;;;;;;4988798;28;20050;-72
2022/09/18 12:59:30;;;;;;;7.72;1.58;;;30.70;98.90;;;;;;4988818;28;20117;-72
2022/09/18 13:02:08;;;;;;;3.47;0.93;;;30.80;99.00;;;;;;4989081;28;20107;-72
2022/09/18 13:04:52;;;;;;;5.30;1.45;;;30.90;98.30;;;;;;4972950;28;20050;-72
2022/09/18 13:07:31;;;;;;;7.43;1.52;;;30.70;98.20;;;;;;5008152;28;20339;-72
2022/09/18 13:10:09;;;;;;;4.68;1.13;;;30.60;98.20;;;;;;5007881;28;20041;-72
2022/09/18 13:12:49;;;;;;;3.90;1.20;;;30.60;98.00;;;;;;5007745;28;20044;-72
2022/09/18 13:15:40;;;;;;;8.18;1.10;;;30.70;98.70;;;;;;5008133;28;20100;-75